עמוד ראשי
METAR-TAF:

METAR-TAF

שדות תעופה :

אבו דאבי, איחוד האמירויות הערביות

קו רוחב: 24-26N, קו אורך: 054-39E, גובה: 16מטר

תצפית מזג אוויר נוכחית

הדו"ח נערך לפני 43דקות, בשעה 20:00 UTC
רוח 4קשר מכיוון מערב
טמפרטורת 34 צלסיוס
לחות 53%
לחץ 1000 hPa
ראות 10 קילומטר או יותר
ללא עננים שבסיסם נמוך מ 5000 רגל או קומולונימבוס

METAR: OMAA 132000Z 26004KT CAVOK 34/23 Q1000 WS ALL RWY NOSIG

זמן: 00:43 (20:43 UTC)

תחזית

הדו"ח נערך לפני 3 שעות ו 43דקות, בשעה 17:00 UTC
תחזית בתוקף מ 13 ב 18 UTC עד 15 ב 00 UTC
רוח 9קשר מכיוון מערב/צפון-מערב
ראות: 8000מטר
יעשה מ
13 ב 18 UTC עד 13 ב 20 UTC
רוח 5קשר מכיוון דרום-מערב
יעשה מ
14 ב 04 UTC עד 14 ב 06 UTC
רוח 13קשר מכיוון צפון/צפון-מערב
יעשה מ
14 ב 17 UTC עד 14 ב 19 UTC
רוח 5קשר מכיוון מזרח/צפון-מזרח

TAF: OMAA 131700Z 1318/1500 30009KT 8000 NSC BECMG 1318/1320 22005KT BECMG 1404/1406 33013KT BECMG 1417/1419 06005KT

תצפיות ותחזיות מזג אוויר לגבי יותר מ- 4,000 שדות תעופה ברחבי העולם. דוחות METAR ו- TAF.

התחנות הזמינות מסומנות בנקודות צהובות ואדומות על גבי המפה.

העבר את העכבר לנקודה הצבעונית על מנת לראות את שם התחנה.

לאחר מכן, לחץ כדי לראות את תוכן ואת תחזיות מזג האוויר.

כדי לשנות את המפה: לחץ על הכפתורים הירוקים עם הפלוס השחור כדי להתקרב; על הכפתור הירוק עם המקף כדי להתרחק; או בחיצים הירוקים למפות סמוכות.


METAR-TAF: